createdAt,value
2022-08-05T00:02:14.604Z,23.80
2022-08-05T00:05:05.843Z,23.15
2022-08-05T00:08:00.748Z,22.74
2022-08-05T00:10:48.379Z,22.82
2022-08-05T00:13:39.503Z,22.27
2022-08-05T00:16:36.304Z,22.65
2022-08-05T00:19:45.679Z,23.28
2022-08-05T00:22:40.982Z,23.17
2022-08-05T00:25:45.599Z,23.10
2022-08-05T00:28:33.723Z,23.26
2022-08-05T00:31:53.737Z,22.83
2022-08-05T00:34:54.216Z,22.97
2022-08-05T00:37:51.302Z,22.70
2022-08-05T00:40:53.347Z,22.96
2022-08-05T00:43:47.302Z,22.30
2022-08-05T00:46:42.693Z,22.82
2022-08-05T00:49:32.397Z,22.89
2022-08-05T00:52:28.098Z,22.19
2022-08-05T00:55:15.859Z,21.06
2022-08-05T00:58:02.919Z,20.91
2022-08-05T01:00:51.816Z,20.27
2022-08-05T01:03:40.186Z,19.93
2022-08-05T01:06:32.578Z,20.36
2022-08-05T01:09:20.349Z,20.66
2022-08-05T01:12:18.580Z,20.97
2022-08-05T01:15:35.616Z,21.04
2022-08-05T01:18:25.130Z,21.10
2022-08-05T01:21:50.682Z,21.37
2022-08-05T01:24:56.397Z,20.78
2022-08-05T01:28:00.087Z,20.65
2022-08-05T01:31:07.560Z,20.44
2022-08-05T01:34:02.943Z,20.13
2022-08-05T01:36:55.820Z,19.94
2022-08-05T01:39:49.850Z,19.80
2022-08-05T01:42:38.614Z,19.80
2022-08-05T01:45:34.858Z,20.18
2022-08-05T01:48:34.958Z,20.50
2022-08-05T01:51:23.085Z,20.64
2022-08-05T01:54:12.790Z,20.19
2022-08-05T01:58:29.707Z,19.63
2022-08-05T02:00:14.323Z,19.60
2022-08-05T02:03:24.447Z,20.23
2022-08-05T02:06:37.996Z,20.27
2022-08-05T02:09:23.641Z,20.39
2022-08-05T02:12:27.701Z,20.38
2022-08-05T02:15:33.363Z,20.53
2022-08-05T02:18:30.887Z,20.99
2022-08-05T02:21:25.450Z,21.08
2022-08-05T02:24:19.805Z,20.93
2022-08-05T02:27:12.600Z,20.41
2022-08-05T02:30:01.254Z,20.44
2022-08-05T02:32:52.909Z,20.21
2022-08-05T02:35:50.892Z,19.63
2022-08-05T02:38:53.201Z,19.46
2022-08-05T02:41:57.615Z,19.71
2022-08-05T02:44:48.574Z,19.95
2022-08-05T02:48:11.652Z,20.13
2022-08-05T02:50:48.481Z,19.92
2022-08-05T02:53:40.478Z,20.30
2022-08-05T02:56:28.191Z,20.27
2022-08-05T02:59:19.094Z,20.37
2022-08-05T03:02:07.776Z,20.76
2022-08-05T03:04:58.084Z,20.83
2022-08-05T03:08:01.736Z,20.80
2022-08-05T03:11:47.601Z,20.69
2022-08-05T03:14:02.762Z,21.00
2022-08-05T03:16:53.429Z,20.98
2022-08-05T03:19:42.025Z,21.04
2022-08-05T03:22:33.077Z,20.31
2022-08-05T03:26:03.869Z,20.69
2022-08-05T03:28:30.862Z,20.81
2022-08-05T03:31:56.275Z,20.91
2022-08-05T03:34:27.712Z,21.25
2022-08-05T03:37:16.020Z,21.63
2022-08-05T03:40:08.684Z,21.82
2022-08-05T03:42:59.413Z,22.06
2022-08-05T03:45:55.126Z,22.20
2022-08-05T03:48:46.763Z,21.93
2022-08-05T03:52:49.071Z,22.22
2022-08-05T03:55:49.906Z,22.37
2022-08-05T03:58:10.820Z,22.44
2022-08-05T04:01:02.194Z,22.50
2022-08-05T04:04:10.700Z,22.19
2022-08-05T04:06:58.837Z,22.14
2022-08-05T04:09:53.745Z,22.26
2022-08-05T04:15:32.884Z,22.26
2022-08-05T04:18:25.573Z,22.27
2022-08-05T04:21:12.719Z,22.55
2022-08-05T04:24:22.661Z,22.69
2022-08-05T04:27:09.912Z,22.81
2022-08-05T04:29:58.530Z,22.52
2022-08-05T04:32:50.967Z,23.05
2022-08-05T04:36:15.865Z,22.80
2022-08-05T04:38:45.476Z,22.80
2022-08-05T04:41:38.892Z,23.28
2022-08-05T04:44:29.216Z,23.33
2022-08-05T04:47:20.083Z,23.10
2022-08-05T04:50:11.486Z,23.02
2022-08-05T04:52:58.883Z,23.11
2022-08-05T04:56:15.289Z,22.76
2022-08-05T04:58:55.658Z,23.19
2022-08-05T05:02:07.947Z,23.34
2022-08-05T05:04:51.509Z,22.88
2022-08-05T05:07:38.766Z,23.16
2022-08-05T05:10:55.816Z,23.10
2022-08-05T05:13:43.603Z,22.35
2022-08-05T05:16:30.905Z,22.12
2022-08-05T05:19:23.633Z,22.33
2022-08-05T05:22:24.495Z,21.92
2022-08-05T05:25:16.842Z,21.86
2022-08-05T05:28:04.645Z,21.82
2022-08-05T05:30:52.404Z,21.99
2022-08-05T05:33:58.617Z,22.03
2022-08-05T05:36:47.212Z,21.77
2022-08-05T05:39:38.236Z,21.84
2022-08-05T05:42:29.379Z,21.79
2022-08-05T05:45:17.291Z,22.15
2022-08-05T05:48:08.095Z,21.97
2022-08-05T05:50:55.627Z,22.46
2022-08-05T05:53:54.150Z,22.39
2022-08-05T05:56:45.584Z,22.43
2022-08-05T05:59:40.417Z,22.49
2022-08-05T06:02:32.875Z,22.63
2022-08-05T06:05:25.103Z,23.41
2022-08-05T06:08:13.957Z,24.09
2022-08-05T06:11:18.654Z,24.05
2022-08-05T06:14:07.119Z,23.37
2022-08-05T06:16:54.105Z,22.72
2022-08-05T06:19:44.361Z,22.59
2022-08-05T06:22:43.450Z,22.64
2022-08-05T06:26:13.436Z,22.59
2022-08-05T06:28:37.428Z,22.61
2022-08-05T06:31:30.605Z,22.76
2022-08-05T06:34:20.384Z,22.76
2022-08-05T06:37:08.341Z,22.59
2022-08-05T06:39:55.454Z,22.55
2022-08-05T06:42:42.631Z,22.62
2022-08-05T06:45:44.480Z,22.80
2022-08-05T06:48:56.065Z,22.79
2022-08-05T06:51:43.661Z,22.54
2022-08-05T06:54:30.815Z,23.14
2022-08-05T06:58:02.699Z,23.37
2022-08-05T07:00:25.629Z,23.30
2022-08-05T07:03:12.747Z,25.31
2022-08-05T07:06:06.021Z,26.18
2022-08-05T07:09:04.100Z,26.04
2022-08-05T07:11:51.892Z,27.16
2022-08-05T07:14:57.331Z,26.16
2022-08-05T07:17:59.178Z,24.09
2022-08-05T07:20:51.393Z,24.06
2022-08-05T07:23:40.594Z,24.03
2022-08-05T07:26:37.117Z,23.97
2022-08-05T07:29:25.310Z,25.07
2022-08-05T07:32:36.447Z,27.14
2022-08-05T07:36:04.000Z,27.35
2022-08-05T07:38:33.910Z,27.21
2022-08-05T07:42:13.453Z,25.87
2022-08-05T07:44:31.184Z,27.19
2022-08-05T07:47:18.482Z,28.39
2022-08-05T07:50:08.471Z,29.07
2022-08-05T07:52:56.149Z,27.22
2022-08-05T07:56:04.917Z,27.85
2022-08-05T07:58:57.488Z,27.92
2022-08-05T08:01:51.837Z,28.37
2022-08-05T08:04:49.512Z,28.40
2022-08-05T08:07:39.424Z,30.04
2022-08-05T08:10:44.540Z,29.44
2022-08-05T08:13:42.993Z,29.82
2022-08-05T08:16:50.397Z,29.12
2022-08-05T08:20:10.201Z,28.96
2022-08-05T08:22:59.128Z,29.26
2022-08-05T08:26:00.085Z,30.34
2022-08-05T08:28:59.050Z,29.85
2022-08-05T08:31:50.028Z,29.84
2022-08-05T08:34:37.306Z,27.88
2022-08-05T08:37:27.911Z,28.92
2022-08-05T08:40:15.238Z,30.70
2022-08-05T08:45:01.602Z,30.87
2022-08-05T08:46:16.161Z,28.49
2022-08-05T08:50:13.210Z,30.75
2022-08-05T08:52:16.095Z,29.41
2022-08-05T08:55:04.274Z,30.37
2022-08-05T08:58:01.411Z,32.01
2022-08-05T09:00:51.500Z,32.89
2022-08-05T09:03:39.439Z,30.03
2022-08-05T09:06:32.954Z,31.84
2022-08-05T09:09:23.900Z,32.49
2022-08-05T09:12:19.953Z,31.95
2022-08-05T09:15:08.642Z,32.82
2022-08-05T09:17:56.080Z,32.17
2022-08-05T09:20:45.880Z,30.30
2022-08-05T09:23:43.308Z,30.61
2022-08-05T09:26:32.426Z,30.93
2022-08-05T09:29:20.183Z,31.01
2022-08-05T09:32:42.299Z,29.80
2022-08-05T09:35:26.520Z,32.90
2022-08-05T09:38:18.709Z,30.39
2022-08-05T09:41:16.067Z,31.70
2022-08-05T09:44:03.801Z,34.05
2022-08-05T09:47:10.463Z,32.58
2022-08-05T09:50:02.118Z,29.87
2022-08-05T09:52:57.835Z,29.52
2022-08-05T09:55:56.545Z,30.51
2022-08-05T09:59:00.157Z,31.14
2022-08-05T10:01:48.121Z,32.21
2022-08-05T10:04:45.287Z,33.71
2022-08-05T10:08:35.973Z,29.41
2022-08-05T10:10:58.131Z,32.01
2022-08-05T10:13:49.115Z,29.95
2022-08-05T10:16:41.561Z,32.84
2022-08-05T10:20:03.148Z,35.13
2022-08-05T10:22:38.046Z,33.11
2022-08-05T10:25:30.329Z,34.95
2022-08-05T10:28:19.375Z,33.51
2022-08-05T10:32:48.096Z,32.73
2022-08-05T10:34:25.826Z,33.15
2022-08-05T10:37:18.446Z,33.71
2022-08-05T10:40:18.045Z,33.83
2022-08-05T10:43:12.559Z,31.78
2022-08-05T10:46:08.200Z,32.26
2022-08-05T10:49:00.605Z,34.93
2022-08-05T10:52:00.446Z,31.12
2022-08-05T10:55:04.570Z,32.01
2022-08-05T10:58:11.669Z,31.56
2022-08-05T11:01:06.658Z,33.34
2022-08-05T11:04:12.217Z,31.35
2022-08-05T11:07:04.882Z,32.87
2022-08-05T11:10:09.605Z,34.28
2022-08-05T11:12:58.409Z,32.47
2022-08-05T11:16:00.521Z,31.54
2022-08-05T11:18:49.076Z,31.75
2022-08-05T11:21:48.818Z,31.96
2022-08-05T11:24:36.033Z,31.36
2022-08-05T11:27:50.969Z,29.79
2022-08-05T11:30:58.809Z,32.51
2022-08-05T11:33:48.950Z,31.87
2022-08-05T11:36:44.393Z,30.91
2022-08-05T11:40:00.570Z,33.13
2022-08-05T11:42:50.287Z,31.65
2022-08-05T11:46:27.263Z,29.96
2022-08-05T11:48:56.487Z,29.99
2022-08-05T11:51:50.190Z,31.58
2022-08-05T11:54:38.318Z,33.09
2022-08-05T11:58:08.390Z,32.63
2022-08-05T12:00:41.322Z,34.41
2022-08-05T12:03:41.871Z,32.44
2022-08-05T12:06:29.588Z,33.97
2022-08-05T12:09:21.145Z,32.59
2022-08-05T12:12:30.211Z,33.30
2022-08-05T12:15:35.755Z,33.89
2022-08-05T12:18:33.629Z,36.23
2022-08-05T12:21:30.180Z,34.16
2022-08-05T12:24:19.208Z,35.09
2022-08-05T12:27:09.949Z,33.65
2022-08-05T12:30:15.630Z,34.56
2022-08-05T12:33:07.127Z,34.39
2022-08-05T12:36:10.379Z,35.56
2022-08-05T12:38:58.587Z,35.26
2022-08-05T12:41:46.265Z,34.72
2022-08-05T12:44:34.357Z,34.62
2022-08-05T12:47:31.110Z,33.19
2022-08-05T12:50:19.741Z,35.61
2022-08-05T12:53:07.210Z,36.48
2022-08-05T12:55:54.546Z,36.49
2022-08-05T12:58:53.678Z,36.50
2022-08-05T13:02:00.940Z,35.26
2022-08-05T13:04:55.244Z,36.84
2022-08-05T13:08:00.115Z,35.79
2022-08-05T13:10:50.614Z,36.84
2022-08-05T13:14:04.785Z,38.90
2022-08-05T13:16:48.971Z,36.33
2022-08-05T13:19:51.680Z,36.62
2022-08-05T13:22:43.589Z,37.56
2022-08-05T13:25:52.664Z,37.49
2022-08-05T13:28:44.020Z,37.27
2022-08-05T13:32:03.079Z,37.62
2022-08-05T13:34:38.362Z,37.12
2022-08-05T13:37:34.768Z,37.75
2022-08-05T13:40:36.863Z,37.67
2022-08-05T13:43:45.341Z,37.76
2022-08-05T13:46:50.584Z,37.13
2022-08-05T13:49:45.089Z,37.81
2022-08-05T13:52:35.248Z,34.62
2022-08-05T13:55:41.825Z,36.56
2022-08-05T13:58:31.035Z,35.58
2022-08-05T14:01:18.283Z,37.38
2022-08-05T14:04:26.705Z,34.99
2022-08-05T14:07:56.223Z,37.17
2022-08-05T14:10:28.066Z,35.18
2022-08-05T14:13:16.403Z,35.44
2022-08-05T14:16:09.254Z,35.01
2022-08-05T14:18:58.102Z,33.87
2022-08-05T14:22:09.064Z,33.86
2022-08-05T14:24:58.273Z,34.46
2022-08-05T14:27:47.550Z,34.06
2022-08-05T14:30:34.569Z,33.18
2022-08-05T14:33:23.587Z,33.02
2022-08-05T14:36:11.265Z,36.02
2022-08-05T14:38:58.454Z,34.01
2022-08-05T14:42:15.974Z,33.81
2022-08-05T14:44:56.906Z,33.55
2022-08-05T14:48:02.972Z,33.73
2022-08-05T14:50:51.055Z,34.31
2022-08-05T14:53:44.498Z,33.38
2022-08-05T14:56:31.737Z,32.77
2022-08-05T14:59:21.219Z,33.13
2022-08-05T15:02:14.960Z,34.17
2022-08-05T15:05:13.250Z,33.21
2022-08-05T15:08:08.962Z,32.54
2022-08-05T15:11:04.337Z,33.54
2022-08-05T15:13:53.206Z,35.62
2022-08-05T15:16:40.225Z,34.37
2022-08-05T15:19:27.441Z,35.46
2022-08-05T15:22:16.049Z,34.24
2022-08-05T15:25:11.673Z,32.66
2022-08-05T15:28:01.417Z,32.53
2022-08-05T15:30:53.165Z,31.76
2022-08-05T15:34:04.495Z,32.71
2022-08-05T15:36:47.663Z,33.25
2022-08-05T15:40:59.324Z,33.17
2022-08-05T15:42:54.029Z,32.02
2022-08-05T15:45:45.751Z,31.58
2022-08-05T15:48:32.961Z,31.81
2022-08-05T15:52:04.355Z,33.01
2022-08-05T15:54:35.044Z,32.85
2022-08-05T15:57:24.954Z,32.67
2022-08-05T16:00:26.212Z,32.90
2022-08-05T16:03:24.895Z,32.15
2022-08-05T16:06:12.032Z,30.73
2022-08-05T16:08:59.080Z,31.12
2022-08-05T16:11:50.887Z,31.26
2022-08-05T16:14:39.952Z,31.79
2022-08-05T16:17:27.015Z,31.18
2022-08-05T16:20:16.166Z,30.68
2022-08-05T16:23:08.561Z,31.15
2022-08-05T16:26:07.521Z,31.40
2022-08-05T16:28:55.307Z,31.08
2022-08-05T16:31:57.442Z,30.81
2022-08-05T16:34:44.713Z,30.47
2022-08-05T16:38:02.248Z,30.74
2022-08-05T16:40:41.632Z,30.62
2022-08-05T16:43:31.768Z,30.93
2022-08-05T16:46:24.185Z,31.04
2022-08-05T16:49:12.776Z,30.78
2022-08-05T16:52:01.277Z,30.76
2022-08-05T16:54:49.876Z,30.58
2022-08-05T16:57:53.726Z,30.67
2022-08-05T17:00:43.916Z,30.49
2022-08-05T17:03:35.229Z,30.74
2022-08-05T17:06:24.689Z,30.70
2022-08-05T17:09:12.124Z,30.15
2022-08-05T17:12:01.247Z,30.16
2022-08-05T17:14:50.041Z,30.23
2022-08-05T17:17:42.262Z,30.18
2022-08-05T17:20:30.129Z,29.96
2022-08-05T17:24:03.581Z,30.00
2022-08-05T17:26:24.461Z,29.77
2022-08-05T17:29:12.690Z,29.25
2022-08-05T17:32:00.389Z,29.16
2022-08-05T17:34:49.160Z,29.34
2022-08-05T17:37:40.286Z,29.27
2022-08-05T17:40:29.439Z,29.28
2022-08-05T17:43:18.555Z,28.72
2022-08-05T17:46:25.656Z,28.75
2022-08-05T17:49:12.867Z,28.54
2022-08-05T17:52:00.078Z,28.82
2022-08-05T17:54:47.727Z,28.79
2022-08-05T17:57:34.886Z,28.83
2022-08-05T18:00:29.448Z,28.82
2022-08-05T18:03:56.149Z,28.59
2022-08-05T18:06:31.021Z,28.23
2022-08-05T18:09:18.322Z,28.57
2022-08-05T18:12:05.463Z,28.29
2022-08-05T18:14:52.536Z,28.05
2022-08-05T18:17:58.994Z,28.27
2022-08-05T18:20:46.901Z,28.09
2022-08-05T18:23:45.560Z,28.16
2022-08-05T18:26:33.974Z,28.43
2022-08-05T18:29:40.331Z,28.33
2022-08-05T18:32:29.531Z,28.25
2022-08-05T18:35:17.223Z,28.12
2022-08-05T18:38:04.969Z,27.78
2022-08-05T18:41:55.014Z,27.53
2022-08-05T18:44:06.549Z,27.01
2022-08-05T18:46:55.101Z,27.11
2022-08-05T18:50:01.900Z,27.07
2022-08-05T18:52:51.485Z,26.98
2022-08-05T18:55:38.974Z,26.98
2022-08-05T18:58:29.047Z,26.93
2022-08-05T19:01:18.033Z,26.66
2022-08-05T19:04:05.663Z,26.33
2022-08-05T19:06:59.364Z,26.23
2022-08-05T19:09:47.084Z,26.06
2022-08-05T19:12:36.578Z,25.91
2022-08-05T19:15:58.350Z,25.90
2022-08-05T19:18:32.123Z,25.88
2022-08-05T19:21:19.165Z,25.64
2022-08-05T19:24:12.613Z,25.92
2022-08-05T19:27:00.229Z,25.70
2022-08-05T19:29:52.022Z,25.61
2022-08-05T19:32:39.013Z,25.66
2022-08-05T19:35:26.028Z,25.66
2022-08-05T19:38:33.239Z,25.50
2022-08-05T19:41:58.385Z,25.20
2022-08-05T19:44:30.378Z,25.22
2022-08-05T19:47:17.901Z,25.33
2022-08-05T19:50:06.072Z,25.03
2022-08-05T19:52:54.908Z,24.81
2022-08-05T19:56:13.642Z,24.86
2022-08-05T19:58:53.947Z,25.00
2022-08-05T20:01:41.393Z,24.93
2022-08-05T20:04:30.586Z,25.10
2022-08-05T20:07:48.701Z,24.79
2022-08-05T20:10:25.146Z,24.75
2022-08-05T20:13:12.372Z,24.84
2022-08-05T20:16:04.223Z,24.50
2022-08-05T20:18:55.539Z,24.12
2022-08-05T20:21:43.389Z,24.44
2022-08-05T20:24:32.997Z,24.47
2022-08-05T20:27:26.880Z,24.35
2022-08-05T20:30:14.453Z,24.28
2022-08-05T20:33:05.411Z,24.62
2022-08-05T20:35:55.908Z,24.52
2022-08-05T20:38:54.573Z,24.44
2022-08-05T20:41:47.871Z,24.76
2022-08-05T20:44:37.923Z,24.92
2022-08-05T20:47:31.681Z,24.91
2022-08-05T20:50:19.537Z,24.97
2022-08-05T20:53:06.693Z,24.97
2022-08-05T20:56:08.508Z,24.76
2022-08-05T20:58:56.344Z,24.26
2022-08-05T21:01:47.499Z,24.03
2022-08-05T21:04:37.527Z,24.42
2022-08-05T21:07:24.802Z,24.58
2022-08-05T21:10:32.656Z,24.60
2022-08-05T21:13:20.410Z,24.54
2022-08-05T21:16:29.556Z,23.65
2022-08-05T21:19:17.692Z,23.62
2022-08-05T21:22:07.187Z,23.66
2022-08-05T21:24:56.600Z,21.49
2022-08-05T21:27:47.664Z,21.75
2022-08-05T21:30:40.124Z,22.34
2022-08-05T21:33:37.091Z,21.96
2022-08-05T21:36:29.841Z,21.90
2022-08-05T21:39:26.550Z,21.74
2022-08-05T21:42:31.154Z,21.78
2022-08-05T21:45:24.768Z,22.23
2022-08-05T21:48:13.667Z,22.28
2022-08-05T21:51:01.253Z,22.09
2022-08-05T21:53:56.733Z,22.18
2022-08-05T21:56:51.492Z,21.64
2022-08-05T22:00:01.914Z,21.45
2022-08-05T22:02:49.109Z,21.51
2022-08-05T22:05:48.331Z,21.69
2022-08-05T22:08:36.275Z,21.55
2022-08-05T22:11:35.192Z,21.40
2022-08-05T22:14:35.857Z,21.26
2022-08-05T22:17:25.060Z,21.33
2022-08-05T22:20:16.380Z,21.28
2022-08-05T22:23:22.598Z,21.96
2022-08-05T22:26:28.444Z,22.00
2022-08-05T22:29:17.411Z,22.05
2022-08-05T22:32:06.373Z,22.29
2022-08-05T22:34:57.077Z,21.57
2022-08-05T22:37:59.025Z,21.30
2022-08-05T22:40:49.483Z,21.51
2022-08-05T22:43:38.139Z,21.45
2022-08-05T22:46:25.714Z,20.64
2022-08-05T22:49:46.165Z,19.75
2022-08-05T22:52:22.842Z,19.96
2022-08-05T22:55:21.485Z,19.99
2022-08-05T22:58:11.749Z,19.54
2022-08-05T23:01:01.808Z,19.45
2022-08-05T23:03:58.504Z,19.12
2022-08-05T23:06:47.898Z,19.49
2022-08-05T23:09:57.728Z,19.30
2022-08-05T23:12:43.830Z,18.99
2022-08-05T23:15:35.412Z,19.27
2022-08-05T23:18:23.345Z,19.56
2022-08-05T23:21:10.429Z,19.43
2022-08-05T23:23:57.449Z,19.59
2022-08-05T23:26:45.199Z,19.27
2022-08-05T23:29:34.841Z,18.55
2022-08-05T23:32:23.776Z,18.44
2022-08-05T23:35:11.003Z,18.84
2022-08-05T23:37:58.021Z,18.74
2022-08-05T23:40:49.399Z,18.14
2022-08-05T23:44:05.320Z,17.93
2022-08-05T23:46:44.324Z,18.08
2022-08-05T23:49:35.693Z,18.07
2022-08-05T23:52:26.693Z,17.74
2022-08-05T23:55:14.865Z,17.74
2022-08-05T23:58:01.813Z,17.91
